Goldsmith, Texas
Current Conditions -  °F | °C
As of 7:53 AM on Thursday 29 Jan 2015 (Local Time) from KODO Reporting Station
Clear Clear  
Wind Chill: 40°   Ceiling: Unl
Heat Index: 46°   Visibility: 10mi
Dew Point: 38°   Wind: 15mph
Humidity: 73%   Direction: 30°NNE
Pressure: 30.25"   Gusts: NA
Location:  31.98°N, 102.62°W
Report Text: KODO 291353Z AUTO 03013KT 10SM CLR 08/03 A3025 RMK AO2 SLP222 T00780033
Loading
Personal Weather Stations






























Interactive Weather Map New forecast layout! Learn more

10-Day Weather Forecast

Advertisements
Track Severe Weather on mobile